createdAt,value
2023-03-23T15:58:29.250Z,65.83
2023-03-23T16:01:05.823Z,65.87
2023-03-23T16:03:41.573Z,65.84
2023-03-23T16:06:23.924Z,65.94
2023-03-23T16:08:58.609Z,65.89
2023-03-23T16:11:32.356Z,65.94
2023-03-23T16:14:04.820Z,65.89
2023-03-23T16:16:38.939Z,66.02
2023-03-23T16:19:12.457Z,65.95
2023-03-23T16:21:45.089Z,66.09
2023-03-23T16:24:17.364Z,65.98
2023-03-23T16:26:49.661Z,66.08
2023-03-23T16:29:40.014Z,66.12
2023-03-23T16:32:14.444Z,66.17
2023-03-23T16:34:46.814Z,66.13
2023-03-23T16:37:19.276Z,66.22
2023-03-23T16:39:51.663Z,66.23
2023-03-23T16:42:23.975Z,66.21
2023-03-23T16:44:56.595Z,66.25
2023-03-23T16:47:29.020Z,66.34
2023-03-23T16:50:01.426Z,66.28
2023-03-23T16:52:34.753Z,66.27
2023-03-23T16:55:19.486Z,66.37
2023-03-23T16:57:52.672Z,66.35
2023-03-23T17:00:27.308Z,66.44
2023-03-23T17:02:59.803Z,66.48
2023-03-23T17:05:32.534Z,66.48
2023-03-23T17:08:05.273Z,66.46
2023-03-23T17:10:41.305Z,66.42
2023-03-23T17:13:14.317Z,66.53
2023-03-23T17:15:47.748Z,66.51
2023-03-23T17:18:20.373Z,66.60
2023-03-23T17:20:53.523Z,66.62
2023-03-23T17:23:26.210Z,66.58
2023-03-23T17:25:58.607Z,66.61
2023-03-23T17:28:31.112Z,66.73
2023-03-23T17:31:03.736Z,66.64
2023-03-23T17:33:36.143Z,66.66
2023-03-23T17:36:10.983Z,66.77
2023-03-23T17:38:41.778Z,66.75
2023-03-23T17:41:14.783Z,66.79
2023-03-23T17:43:47.079Z,66.79
2023-03-23T17:46:19.637Z,66.86
2023-03-23T17:48:52.850Z,66.92
2023-03-23T17:51:25.154Z,66.96
2023-03-23T17:53:57.659Z,66.94
2023-03-23T17:56:30.220Z,66.97
2023-03-23T17:59:02.604Z,66.91
2023-03-23T18:01:35.090Z,67.07
2023-03-23T18:04:07.924Z,67.06
2023-03-23T18:06:40.248Z,67.19
2023-03-23T18:09:13.033Z,67.22
2023-03-23T18:11:45.466Z,67.13
2023-03-23T18:14:18.141Z,67.26
2023-03-23T18:16:50.657Z,67.26
2023-03-23T18:19:23.043Z,67.47
2023-03-23T18:21:55.588Z,67.42
2023-03-23T18:24:27.962Z,67.65
2023-03-23T18:27:00.290Z,67.55
2023-03-23T18:29:32.667Z,67.71
2023-03-23T18:32:07.354Z,67.64
2023-03-23T18:34:41.946Z,67.69
2023-03-23T18:37:14.394Z,67.83
2023-03-23T18:39:46.850Z,67.90
2023-03-23T18:42:19.222Z,67.91
2023-03-23T18:44:51.636Z,67.85
2023-03-23T18:47:24.126Z,67.94
2023-03-23T18:49:56.858Z,67.93
2023-03-23T18:52:31.050Z,67.98
2023-03-23T18:55:03.807Z,67.91
2023-03-23T18:57:36.284Z,67.92
2023-03-23T19:00:12.185Z,67.95
2023-03-23T19:02:44.799Z,67.93
2023-03-23T19:05:24.885Z,67.92
2023-03-23T19:07:58.302Z,67.96
2023-03-23T19:10:31.415Z,68.02
2023-03-23T19:13:04.169Z,68.10
2023-03-23T19:15:38.363Z,68.10
2023-03-23T19:18:09.819Z,68.12
2023-03-23T19:23:19.791Z,68.22
2023-03-23T19:25:54.077Z,68.15
2023-03-23T19:31:03.121Z,68.33
2023-03-23T19:33:35.636Z,68.20
2023-03-23T19:36:12.956Z,68.31
2023-03-23T19:38:45.967Z,68.34
2023-03-23T19:41:19.375Z,68.25
2023-03-23T19:43:51.941Z,68.29
2023-03-23T19:46:24.339Z,68.19
2023-03-23T19:48:57.663Z,68.28
2023-03-23T19:51:30.689Z,68.18
2023-03-23T19:54:03.179Z,68.41
2023-03-23T19:56:36.293Z,68.37
2023-03-23T19:59:10.725Z,68.32
2023-03-23T20:01:44.277Z,68.33
2023-03-23T20:04:18.771Z,68.26
2023-03-23T20:06:52.389Z,68.41
2023-03-23T20:09:25.355Z,68.44
2023-03-23T20:11:58.407Z,68.48
2023-03-23T20:14:31.269Z,68.49
2023-03-23T20:17:05.634Z,68.56
2023-03-23T20:19:38.748Z,68.47
2023-03-23T20:22:11.183Z,68.60
2023-03-23T20:24:45.322Z,68.72
2023-03-23T20:27:18.274Z,68.52
2023-03-23T20:29:52.455Z,68.61
2023-03-23T20:32:25.110Z,68.77
2023-03-23T20:34:57.706Z,68.66
2023-03-23T20:37:31.288Z,68.69
2023-03-23T20:40:07.188Z,68.76
2023-03-23T20:42:43.973Z,68.73
2023-03-23T20:45:18.581Z,68.85
2023-03-23T20:47:51.018Z,68.96
2023-03-23T20:50:23.744Z,69.01
2023-03-23T20:52:58.171Z,69.16
2023-03-23T20:55:31.563Z,69.10
2023-03-23T20:58:05.175Z,69.24
2023-03-23T21:00:37.518Z,69.16
2023-03-23T21:03:11.491Z,69.37
2023-03-23T21:05:46.668Z,69.38
2023-03-23T21:08:19.762Z,69.39
2023-03-23T21:10:52.820Z,69.49
2023-03-23T21:13:25.858Z,69.42
2023-03-23T21:15:58.506Z,69.58
2023-03-23T21:18:31.055Z,69.62
2023-03-23T21:21:04.487Z,69.67
2023-03-23T21:23:38.592Z,69.60
2023-03-23T21:26:13.600Z,69.68
2023-03-23T21:28:47.051Z,69.75
2023-03-23T21:31:19.881Z,69.82
2023-03-23T21:33:52.576Z,69.98
2023-03-23T21:36:26.887Z,70.05
2023-03-23T21:38:59.747Z,70.00
2023-03-23T21:41:42.013Z,69.96
2023-03-23T21:44:15.413Z,70.05
2023-03-23T21:46:47.832Z,70.16
2023-03-23T21:49:20.271Z,70.10
2023-03-23T21:51:52.585Z,70.17
2023-03-23T21:54:24.866Z,70.17
2023-03-23T21:56:57.902Z,70.15
2023-03-23T21:59:30.408Z,70.43
2023-03-23T22:02:03.153Z,70.43
2023-03-23T22:04:35.650Z,70.33
2023-03-23T22:07:08.533Z,70.54
2023-03-23T22:09:45.422Z,70.53
2023-03-23T22:12:18.398Z,70.35
2023-03-23T22:14:50.778Z,70.54
2023-03-23T22:17:23.157Z,70.61
2023-03-23T22:19:55.469Z,70.50
2023-03-23T22:22:27.843Z,70.58
2023-03-23T22:25:00.218Z,70.70
2023-03-23T22:27:32.858Z,70.69
2023-03-23T22:30:05.815Z,70.65
2023-03-23T22:32:38.124Z,70.60
2023-03-23T22:35:12.678Z,70.76
2023-03-23T22:37:45.077Z,70.71
2023-03-23T22:40:18.080Z,70.86
2023-03-23T22:42:50.472Z,70.61
2023-03-23T22:45:24.235Z,70.88
2023-03-23T22:47:57.774Z,70.88
2023-03-23T22:50:30.319Z,70.83
2023-03-23T22:53:02.624Z,71.08
2023-03-23T22:55:35.245Z,70.96
2023-03-23T22:58:07.567Z,71.13
2023-03-23T23:00:40.347Z,71.01
2023-03-23T23:03:13.070Z,71.22
2023-03-23T23:05:49.774Z,71.20
2023-03-23T23:08:23.064Z,71.29
2023-03-23T23:10:57.835Z,71.30
2023-03-23T23:13:33.110Z,71.28
2023-03-23T23:16:07.347Z,71.30
2023-03-23T23:18:40.589Z,71.32
2023-03-23T23:21:16.492Z,71.36
2023-03-23T23:23:50.964Z,71.47
2023-03-23T23:26:23.875Z,71.50
2023-03-23T23:28:56.777Z,71.39
2023-03-23T23:31:32.632Z,71.55
2023-03-23T23:34:06.278Z,71.49
2023-03-23T23:36:38.612Z,71.65
2023-03-23T23:39:12.208Z,71.59
2023-03-23T23:41:44.440Z,71.74
2023-03-23T23:44:17.005Z,71.75
2023-03-23T23:46:49.222Z,71.75
2023-03-23T23:49:23.087Z,71.81
2023-03-23T23:51:55.624Z,71.79
2023-03-23T23:54:30.205Z,71.86
2023-03-23T23:57:03.753Z,71.87
2023-03-23T23:59:36.150Z,71.92
